createdAt,value
2018-04-23T00:01:05.823Z,12.30
2018-04-23T00:03:33.324Z,12.30
2018-04-23T00:06:00.834Z,12.40
2018-04-23T00:08:28.471Z,12.20
2018-04-23T00:10:55.975Z,12.20
2018-04-23T00:13:23.475Z,12.20
2018-04-23T00:15:51.110Z,12.10
2018-04-23T00:18:18.616Z,12.20
2018-04-23T00:20:46.119Z,12.00
2018-04-23T00:23:13.735Z,12.00
2018-04-23T00:25:41.239Z,11.90
2018-04-23T00:28:09.509Z,11.80
2018-04-23T00:30:37.798Z,11.80
2018-04-23T00:33:06.063Z,11.90
2018-04-23T00:35:33.571Z,11.80
2018-04-23T00:38:01.244Z,11.80
2018-04-23T00:40:28.765Z,11.60
2018-04-23T00:42:57.040Z,11.60
2018-04-23T00:45:25.426Z,11.60
2018-04-23T00:47:53.701Z,11.70
2018-04-23T00:50:21.222Z,11.70
2018-04-23T00:53:00.620Z,11.60
2018-04-23T00:55:28.136Z,11.70
2018-04-23T00:57:55.631Z,11.70
2018-04-23T01:00:24.029Z,11.60
2018-04-23T01:02:52.285Z,11.50
2018-04-23T01:05:19.780Z,11.50
2018-04-23T01:07:47.307Z,11.50
2018-04-23T01:10:14.811Z,11.50
2018-04-23T01:12:42.318Z,11.50
2018-04-23T01:15:09.948Z,11.50
2018-04-23T01:17:37.451Z,11.50
2018-04-23T01:20:04.969Z,11.50
2018-04-23T01:22:32.509Z,11.50
2018-04-23T01:25:00.781Z,11.50
2018-04-23T01:27:29.191Z,11.50
2018-04-23T01:29:56.709Z,11.40
2018-04-23T01:32:24.207Z,11.40
2018-04-23T01:34:51.847Z,11.40
2018-04-23T01:37:19.349Z,11.40
2018-04-23T01:39:46.873Z,11.30
2018-04-23T01:42:14.583Z,11.30
2018-04-23T01:44:42.098Z,11.30
2018-04-23T01:47:09.608Z,11.20
2018-04-23T01:49:37.152Z,11.20
2018-04-23T01:52:05.431Z,11.10
2018-04-23T01:54:32.931Z,11.10
2018-04-23T01:57:00.544Z,11.10
2018-04-23T01:59:28.813Z,11.10
2018-04-23T02:01:56.319Z,11.10
2018-04-23T02:04:23.948Z,11.00
2018-04-23T02:06:51.445Z,11.00
2018-04-23T02:09:18.947Z,11.00
2018-04-23T02:11:46.479Z,11.00
2018-04-23T02:14:13.985Z,10.90
2018-04-23T02:16:41.474Z,10.90
2018-04-23T02:19:09.966Z,10.80
2018-04-23T02:21:37.486Z,10.80
2018-04-23T02:24:04.983Z,10.90
2018-04-23T02:26:33.390Z,10.80
2018-04-23T02:29:00.905Z,10.70
2018-04-23T02:31:28.417Z,10.70
2018-04-23T02:33:56.040Z,10.70
2018-04-23T02:36:23.596Z,10.60
2018-04-23T02:38:51.066Z,10.70
2018-04-23T02:41:18.706Z,10.60
2018-04-23T02:43:46.207Z,10.60
2018-04-23T02:46:14.482Z,10.50
2018-04-23T02:48:42.990Z,10.50
2018-04-23T02:51:10.502Z,10.40
2018-04-23T02:53:38.027Z,10.60
2018-04-23T02:56:05.663Z,10.60
2018-04-23T02:58:33.935Z,10.50
2018-04-23T03:01:01.457Z,10.50
2018-04-23T03:03:29.107Z,10.50
2018-04-23T03:05:56.626Z,10.40
2018-04-23T03:08:24.129Z,10.40
2018-04-23T03:10:51.861Z,10.30
2018-04-23T03:13:19.375Z,10.30
2018-04-23T03:15:46.876Z,10.30
2018-04-23T03:18:14.650Z,10.30
2018-04-23T03:20:42.170Z,10.30
2018-04-23T03:23:09.674Z,10.30
2018-04-23T03:25:37.291Z,10.40
2018-04-23T03:28:04.796Z,10.40
2018-04-23T03:30:32.315Z,10.30
2018-04-23T03:32:59.935Z,10.30
2018-04-23T03:35:27.450Z,10.30
2018-04-23T03:37:54.943Z,10.40
2018-04-23T03:40:22.467Z,10.40
2018-04-23T03:42:49.972Z,10.30
2018-04-23T03:45:17.487Z,10.30
2018-04-23T03:47:45.126Z,10.40
2018-04-23T03:50:13.400Z,10.30
2018-04-23T03:52:41.807Z,10.40
2018-04-23T03:55:09.329Z,10.40
2018-04-23T03:57:36.881Z,10.40
2018-04-23T04:00:04.484Z,10.40
2018-04-23T04:02:32.771Z,10.50
2018-04-23T04:05:01.085Z,10.50
2018-04-23T04:07:28.610Z,10.50
2018-04-23T04:09:56.892Z,10.60
2018-04-23T04:12:37.015Z,10.70
2018-04-23T04:15:16.318Z,10.70
2018-04-23T04:20:51.485Z,10.80
2018-04-23T04:23:19.124Z,10.90
2018-04-23T04:25:46.618Z,11.00
2018-04-23T04:28:14.118Z,11.10
2018-04-23T04:30:41.653Z,11.20
2018-04-23T04:33:09.172Z,11.40
2018-04-23T04:35:36.718Z,11.30
2018-04-23T04:38:04.248Z,11.40
2018-04-23T04:40:31.761Z,11.40
2018-04-23T04:42:59.275Z,11.50
2018-04-23T04:45:26.896Z,11.50
2018-04-23T04:47:54.431Z,11.50
2018-04-23T04:50:21.935Z,11.60
2018-04-23T04:52:49.474Z,11.60
2018-04-23T04:55:16.999Z,11.60
2018-04-23T04:57:44.519Z,11.50
2018-04-23T05:00:12.079Z,11.50
2018-04-23T05:02:39.623Z,11.60
2018-04-23T05:05:07.123Z,11.60
2018-04-23T05:07:34.785Z,11.60
2018-04-23T05:10:02.314Z,11.70
2018-04-23T05:12:29.832Z,11.80
2018-04-23T05:14:57.465Z,11.90
2018-04-23T05:17:25.003Z,12.00
2018-04-23T05:19:52.523Z,12.00
2018-04-23T05:22:20.154Z,12.00
2018-04-23T05:24:47.661Z,12.00
2018-04-23T05:27:15.179Z,12.10
2018-04-23T05:29:42.866Z,12.20
2018-04-23T05:32:10.374Z,12.20
2018-04-23T05:34:37.901Z,12.30
2018-04-23T05:37:05.614Z,12.50
2018-04-23T05:39:33.136Z,12.60
2018-04-23T05:42:00.703Z,12.70
2018-04-23T05:44:28.388Z,12.90
2018-04-23T05:46:55.927Z,13.10
2018-04-23T05:49:23.443Z,13.30
2018-04-23T05:51:51.085Z,13.30
2018-04-23T05:54:18.592Z,13.50
2018-04-23T05:56:46.143Z,13.70
2018-04-23T05:59:13.785Z,13.80
2018-04-23T06:01:41.290Z,13.90
2018-04-23T06:04:08.787Z,14.10
2018-04-23T06:06:36.420Z,14.20
2018-04-23T06:09:03.930Z,14.30
2018-04-23T06:11:31.439Z,14.40
2018-04-23T06:13:58.969Z,14.50
2018-04-23T06:16:26.483Z,14.60
2018-04-23T06:18:53.989Z,14.60
2018-04-23T06:21:21.660Z,14.80
2018-04-23T06:23:49.189Z,14.80
2018-04-23T06:26:16.697Z,14.90
2018-04-23T06:28:44.367Z,15.10
2018-04-23T06:31:11.889Z,15.20
2018-04-23T06:33:39.447Z,15.30
2018-04-23T06:36:07.061Z,15.40
2018-04-23T06:38:34.572Z,15.50
2018-04-23T06:41:02.088Z,15.70
2018-04-23T06:43:29.619Z,15.80
2018-04-23T06:45:57.138Z,15.90
2018-04-23T06:48:24.652Z,16.00
2018-04-23T06:50:52.277Z,16.10
2018-04-23T06:53:19.775Z,16.30
2018-04-23T06:55:47.285Z,16.50
2018-04-23T06:58:14.821Z,16.60
2018-04-23T07:00:42.422Z,16.80
2018-04-23T07:03:09.916Z,16.90
2018-04-23T07:05:37.535Z,17.10
2018-04-23T07:08:05.043Z,17.20
2018-04-23T07:10:32.611Z,17.20
2018-04-23T07:13:00.219Z,17.20
2018-04-23T07:15:27.736Z,17.30
2018-04-23T07:17:55.233Z,17.40
2018-04-23T07:20:22.871Z,17.40
2018-04-23T07:22:50.387Z,17.40
2018-04-23T07:25:17.901Z,17.30
2018-04-23T07:27:45.524Z,17.20
2018-04-23T07:30:13.036Z,17.10
2018-04-23T07:32:40.549Z,16.90
2018-04-23T07:35:08.079Z,16.90
2018-04-23T07:37:35.599Z,16.80
2018-04-23T07:40:03.125Z,16.50
2018-04-23T07:42:30.781Z,16.40
2018-04-23T07:44:59.063Z,16.10
2018-04-23T07:47:27.361Z,16.00
2018-04-23T07:49:55.012Z,16.00
2018-04-23T07:52:23.293Z,15.90
2018-04-23T07:54:51.569Z,16.00
2018-04-23T07:57:19.116Z,16.00
2018-04-23T07:59:46.631Z,16.10
2018-04-23T08:02:14.143Z,16.20
2018-04-23T08:04:41.794Z,16.20
2018-04-23T08:07:10.081Z,16.50
2018-04-23T08:09:37.641Z,16.50
2018-04-23T08:12:05.272Z,16.60
2018-04-23T08:14:32.795Z,16.80
2018-04-23T08:17:01.086Z,17.00
2018-04-23T08:19:29.388Z,17.10
2018-04-23T08:21:56.896Z,17.10
2018-04-23T08:24:24.400Z,17.30
2018-04-23T08:26:52.856Z,17.40
2018-04-23T08:29:20.402Z,17.40
2018-04-23T08:31:47.931Z,17.40
2018-04-23T08:34:16.347Z,17.50
2018-04-23T08:36:43.875Z,17.40
2018-04-23T08:39:12.148Z,17.50
2018-04-23T08:41:40.667Z,17.60
2018-04-23T08:44:08.202Z,17.60
2018-04-23T08:46:35.727Z,17.70
2018-04-23T08:49:04.127Z,18.00
2018-04-23T08:51:32.435Z,18.20
2018-04-23T08:53:59.964Z,18.20
2018-04-23T08:56:27.531Z,18.30
2018-04-23T08:58:55.065Z,18.50
2018-04-23T09:01:22.576Z,18.70
2018-04-23T09:03:51.012Z,18.90
2018-04-23T09:06:18.523Z,18.80
2018-04-23T09:08:46.842Z,19.20
2018-04-23T09:11:14.374Z,19.20
2018-04-23T09:13:42.652Z,19.50
2018-04-23T09:16:11.116Z,19.80
2018-04-23T09:18:38.636Z,19.80
2018-04-23T09:21:06.185Z,20.00
2018-04-23T09:23:33.746Z,20.20
2018-04-23T09:26:02.029Z,20.50
2018-04-23T09:28:30.312Z,20.50
2018-04-23T09:30:57.848Z,20.50
2018-04-23T09:33:25.355Z,20.70
2018-04-23T09:35:52.859Z,20.70
2018-04-23T09:38:21.254Z,21.00
2018-04-23T09:40:48.757Z,21.00
2018-04-23T09:43:16.258Z,21.10
2018-04-23T09:45:44.663Z,21.40
2018-04-23T09:48:12.198Z,21.30
2018-04-23T09:50:40.483Z,21.60
2018-04-23T09:53:08.932Z,21.70
2018-04-23T09:55:36.439Z,21.70
2018-04-23T09:58:04.718Z,21.90
2018-04-23T10:00:32.344Z,21.90
2018-04-23T10:03:14.741Z,21.90
2018-04-23T10:05:42.368Z,22.10
2018-04-23T10:08:10.650Z,22.20
2018-04-23T10:10:38.162Z,22.20
2018-04-23T10:13:05.712Z,22.50
2018-04-23T10:15:33.993Z,22.80
2018-04-23T10:18:01.511Z,22.80
2018-04-23T10:20:29.135Z,22.60
2018-04-23T10:22:57.411Z,22.60
2018-04-23T10:25:25.800Z,22.70
2018-04-23T10:27:54.097Z,22.70
2018-04-23T10:30:21.618Z,22.70
2018-04-23T10:32:49.252Z,22.70
2018-04-23T10:35:16.774Z,22.80
2018-04-23T10:37:45.063Z,22.70
2018-04-23T10:40:13.467Z,22.80
2018-04-23T10:42:40.994Z,22.70
2018-04-23T10:45:08.527Z,22.70
2018-04-23T10:47:36.160Z,22.80
2018-04-23T10:50:03.695Z,22.90
2018-04-23T10:52:32.106Z,22.90
2018-04-23T10:54:59.642Z,22.80
2018-04-23T10:57:27.968Z,23.10
2018-04-23T10:59:55.515Z,23.10
2018-04-23T11:02:23.053Z,23.10
2018-04-23T11:04:51.359Z,22.90
2018-04-23T11:07:18.867Z,22.90
2018-04-23T11:09:46.416Z,23.10
2018-04-23T11:12:13.924Z,23.20
2018-04-23T11:14:42.286Z,23.30
2018-04-23T11:17:09.871Z,23.20
2018-04-23T11:19:38.188Z,23.10
2018-04-23T11:22:05.709Z,23.10
2018-04-23T11:24:34.106Z,23.00
2018-04-23T11:27:02.377Z,23.10
2018-04-23T11:29:30.691Z,23.30
2018-04-23T11:31:58.210Z,23.30
2018-04-23T11:34:25.737Z,23.50
2018-04-23T11:36:53.483Z,23.60
2018-04-23T11:39:20.992Z,23.90
2018-04-23T11:41:48.505Z,24.20
2018-04-23T11:44:16.075Z,24.50
2018-04-23T11:46:43.588Z,24.60
2018-04-23T11:49:11.120Z,24.50
2018-04-23T11:51:38.751Z,24.50
2018-04-23T11:54:07.035Z,24.80
2018-04-23T11:56:35.320Z,24.80
2018-04-23T11:59:02.872Z,24.80
2018-04-23T12:01:31.148Z,24.90
2018-04-23T12:03:58.658Z,24.90
2018-04-23T12:06:26.270Z,24.90
2018-04-23T12:08:53.783Z,25.00
2018-04-23T12:11:21.313Z,25.20
2018-04-23T12:13:49.741Z,25.20
2018-04-23T12:16:17.291Z,25.20
2018-04-23T12:18:44.815Z,25.30
2018-04-23T12:21:12.472Z,25.40
2018-04-23T12:23:39.994Z,25.30
2018-04-23T12:26:07.524Z,25.20
2018-04-23T12:28:35.936Z,25.40
2018-04-23T12:31:03.456Z,25.40
2018-04-23T12:33:30.996Z,25.40
2018-04-23T12:35:58.651Z,25.20
2018-04-23T12:38:26.170Z,25.10
2018-04-23T12:40:53.685Z,25.10
2018-04-23T12:43:21.343Z,25.00
2018-04-23T12:45:48.878Z,25.10
2018-04-23T12:48:16.400Z,25.10
2018-04-23T12:50:44.049Z,24.90
2018-04-23T12:53:11.608Z,25.00
2018-04-23T12:55:39.133Z,25.10
2018-04-23T12:58:07.674Z,25.00
2018-04-23T13:00:35.191Z,25.00
2018-04-23T13:03:02.715Z,25.10
2018-04-23T13:05:30.347Z,25.00
2018-04-23T13:07:57.863Z,25.00
2018-04-23T13:10:26.147Z,24.90
2018-04-23T13:12:54.456Z,25.00
2018-04-23T13:15:22.011Z,25.00
2018-04-23T13:17:49.563Z,25.00
2018-04-23T13:20:17.981Z,25.10
2018-04-23T13:22:45.557Z,25.10
2018-04-23T13:25:13.068Z,24.90
2018-04-23T13:27:41.493Z,24.70
2018-04-23T13:30:09.033Z,24.60
2018-04-23T13:32:37.134Z,24.80
2018-04-23T13:35:04.817Z,24.70
2018-04-23T13:37:32.319Z,24.70
2018-04-23T13:40:00.602Z,24.60
2018-04-23T13:42:29.020Z,24.40
2018-04-23T13:44:56.605Z,24.40
2018-04-23T13:47:24.117Z,24.50
2018-04-23T13:49:52.537Z,24.40
2018-04-23T13:52:20.057Z,24.40
2018-04-23T13:54:48.355Z,24.40
2018-04-23T13:57:16.036Z,24.40
2018-04-23T13:59:43.591Z,24.40
2018-04-23T14:02:11.119Z,24.40
2018-04-23T14:04:38.727Z,24.40
2018-04-23T14:07:06.298Z,24.30
2018-04-23T14:09:33.814Z,24.30
2018-04-23T14:12:01.413Z,24.30
2018-04-23T14:14:29.055Z,24.30
2018-04-23T14:16:56.634Z,24.30
2018-04-23T14:19:25.049Z,24.30
2018-04-23T14:21:52.616Z,24.20
2018-04-23T14:24:20.147Z,24.30
2018-04-23T14:26:48.439Z,24.40
2018-04-23T14:29:16.010Z,24.40
2018-04-23T14:31:43.548Z,24.40
2018-04-23T14:34:11.978Z,24.50
2018-04-23T14:36:39.511Z,24.40
2018-04-23T14:39:07.056Z,24.50
2018-04-23T14:41:35.477Z,24.40
2018-04-23T14:44:02.995Z,24.40
2018-04-23T14:46:30.523Z,24.30
2018-04-23T14:48:58.327Z,24.40
2018-04-23T14:51:25.847Z,24.30
2018-04-23T14:53:53.415Z,24.20
2018-04-23T14:56:21.068Z,24.20
2018-04-23T14:58:48.594Z,24.10
2018-04-23T15:01:16.944Z,24.00
2018-04-23T15:03:44.494Z,24.00
2018-04-23T15:06:12.194Z,23.90
2018-04-23T15:08:39.859Z,24.00
2018-04-23T15:11:07.451Z,23.90
2018-04-23T15:13:35.742Z,23.80
2018-04-23T15:16:03.488Z,23.80
2018-04-23T15:18:31.775Z,23.70
2018-04-23T15:21:00.205Z,23.70
2018-04-23T15:23:27.752Z,23.70
2018-04-23T15:25:55.372Z,23.70
2018-04-23T15:28:23.004Z,23.60
2018-04-23T15:30:50.553Z,23.60
2018-04-23T15:33:18.066Z,23.70
2018-04-23T15:35:45.779Z,23.70
2018-04-23T15:38:13.345Z,23.70
2018-04-23T15:40:40.853Z,23.70
2018-04-23T15:43:08.412Z,23.60
2018-04-23T15:45:36.712Z,23.60
2018-04-23T15:48:04.271Z,23.60
2018-04-23T15:50:31.828Z,23.70
2018-04-23T15:53:00.128Z,23.60
2018-04-23T15:55:28.403Z,23.60
2018-04-23T15:57:56.055Z,23.60
2018-04-23T16:00:23.591Z,23.50
2018-04-23T16:02:51.135Z,23.50
2018-04-23T16:05:18.784Z,23.40
2018-04-23T16:07:47.073Z,23.30
2018-04-23T16:10:14.598Z,23.30
2018-04-23T16:12:42.162Z,23.30
2018-04-23T16:15:09.700Z,23.20
2018-04-23T16:17:37.202Z,23.20
2018-04-23T16:20:04.861Z,23.10
2018-04-23T16:22:32.390Z,23.00
2018-04-23T16:24:59.907Z,23.00
2018-04-23T16:27:28.492Z,22.80
2018-04-23T16:29:56.893Z,22.80
2018-04-23T16:32:24.579Z,22.70
2018-04-23T16:34:52.309Z,22.70
2018-04-23T16:37:20.694Z,22.70
2018-04-23T16:39:49.046Z,22.60
2018-04-23T16:42:16.627Z,22.60
2018-04-23T16:44:44.205Z,22.50
2018-04-23T16:47:12.621Z,22.30
2018-04-23T16:49:40.195Z,22.30
2018-04-23T16:52:07.748Z,21.10
2018-04-23T16:54:35.347Z,20.40
2018-04-23T16:57:02.901Z,19.50
2018-04-23T16:59:30.463Z,18.10
2018-04-23T17:01:58.079Z,17.70
2018-04-23T17:04:26.473Z,17.30
2018-04-23T17:06:54.133Z,17.30
2018-04-23T17:09:22.450Z,16.90
2018-04-23T17:11:49.999Z,16.90
2018-04-23T17:14:17.523Z,16.80
2018-04-23T17:16:45.062Z,16.90
2018-04-23T17:19:12.582Z,16.80
2018-04-23T17:21:40.139Z,16.70
2018-04-23T17:24:07.716Z,16.80
2018-04-23T17:26:35.244Z,16.80
2018-04-23T17:29:02.800Z,16.70
2018-04-23T17:31:30.358Z,16.60
2018-04-23T17:33:57.892Z,16.50
2018-04-23T17:36:25.430Z,16.50
2018-04-23T17:38:52.982Z,16.50
2018-04-23T17:41:21.294Z,16.50
2018-04-23T17:43:48.857Z,16.50
2018-04-23T17:46:16.428Z,16.50
2018-04-23T17:48:43.998Z,16.40
2018-04-23T17:51:11.507Z,16.40
2018-04-23T17:53:39.846Z,16.30
2018-04-23T17:56:07.470Z,16.30
2018-04-23T17:58:35.825Z,16.40
2018-04-23T18:01:03.372Z,16.40
2018-04-23T18:03:30.959Z,16.30
2018-04-23T18:05:58.562Z,16.40
2018-04-23T18:08:26.149Z,16.40
2018-04-23T18:10:53.726Z,16.30
2018-04-23T18:13:21.412Z,16.30
2018-04-23T18:15:48.985Z,16.30
2018-04-23T18:18:16.521Z,16.30
2018-04-23T18:20:44.059Z,16.30
2018-04-23T18:23:11.859Z,16.40
2018-04-23T18:25:39.402Z,16.40
2018-04-23T18:28:06.934Z,16.40
2018-04-23T18:30:35.269Z,16.40
2018-04-23T18:33:02.799Z,16.40
2018-04-23T18:35:30.402Z,16.50
2018-04-23T18:37:57.995Z,16.50
2018-04-23T18:40:26.303Z,16.40
2018-04-23T18:42:53.847Z,16.40
2018-04-23T18:45:22.189Z,16.50
2018-04-23T18:47:49.776Z,16.40
2018-04-23T18:50:17.327Z,16.40
2018-04-23T18:52:44.922Z,16.40
2018-04-23T18:55:13.412Z,16.40
2018-04-23T18:57:42.097Z,16.50
2018-04-23T19:00:10.440Z,16.50
2018-04-23T19:02:38.472Z,16.50
2018-04-23T19:05:06.066Z,16.50
2018-04-23T19:07:33.647Z,16.60
2018-04-23T19:10:01.307Z,16.60
2018-04-23T19:12:28.867Z,16.50
2018-04-23T19:14:56.611Z,16.60
2018-04-23T19:17:24.192Z,16.60
2018-04-23T19:19:51.760Z,16.60
2018-04-23T19:22:19.294Z,16.50
2018-04-23T19:24:46.824Z,16.50
2018-04-23T19:27:14.411Z,16.40
2018-04-23T19:29:42.723Z,16.40
2018-04-23T19:32:10.282Z,16.40
2018-04-23T19:34:37.937Z,16.30
2018-04-23T19:37:05.512Z,16.30
2018-04-23T19:39:33.141Z,16.20
2018-04-23T19:42:01.537Z,16.00
2018-04-23T19:44:29.092Z,15.90
2018-04-23T19:46:56.664Z,16.10
2018-04-23T19:49:25.025Z,15.90
2018-04-23T19:51:52.619Z,15.90
2018-04-23T19:54:20.949Z,15.90
2018-04-23T19:56:48.563Z,15.80
2018-04-23T19:59:16.894Z,15.80
2018-04-23T20:01:44.460Z,15.80
2018-04-23T20:04:12.005Z,15.70
2018-04-23T20:06:39.550Z,15.70
2018-04-23T20:09:07.844Z,15.70
2018-04-23T20:11:35.428Z,15.60
2018-04-23T20:14:02.976Z,15.70
2018-04-23T20:16:30.514Z,15.60
2018-04-23T20:18:58.870Z,15.60
2018-04-23T20:21:26.434Z,15.50
2018-04-23T20:23:54.061Z,15.60
2018-04-23T20:26:21.645Z,15.50
2018-04-23T20:28:49.191Z,15.50
2018-04-23T20:31:16.726Z,15.50
2018-04-23T20:33:44.285Z,15.60
2018-04-23T20:36:12.787Z,15.60
2018-04-23T20:38:40.835Z,15.50
2018-04-23T20:41:08.831Z,15.60
2018-04-23T20:43:36.818Z,15.60
2018-04-23T20:46:04.803Z,15.60
2018-04-23T20:48:32.861Z,15.60
2018-04-23T20:51:00.876Z,15.50
2018-04-23T20:53:29.741Z,15.40
2018-04-23T20:55:57.677Z,15.40
2018-04-23T20:58:25.693Z,15.30
2018-04-23T21:00:53.770Z,15.30
2018-04-23T21:03:22.631Z,15.30
2018-04-23T21:05:50.528Z,15.30
2018-04-23T21:08:18.884Z,15.30
2018-04-23T21:10:47.242Z,15.30
2018-04-23T21:13:14.795Z,15.30
2018-04-23T21:15:42.345Z,15.40
2018-04-23T21:18:09.921Z,15.40
2018-04-23T21:20:37.486Z,15.40
2018-04-23T21:23:05.198Z,15.40
2018-04-23T21:25:32.765Z,15.40
2018-04-23T21:28:01.066Z,15.30
2018-04-23T21:30:28.615Z,15.30
2018-04-23T21:32:57.106Z,15.30
2018-04-23T21:35:24.673Z,15.30
2018-04-23T21:37:52.240Z,15.30
2018-04-23T21:40:19.833Z,15.30
2018-04-23T21:42:48.133Z,15.30
2018-04-23T21:45:15.669Z,15.20
2018-04-23T21:47:43.266Z,15.10
2018-04-23T21:50:10.817Z,15.10
2018-04-23T21:52:38.361Z,15.10
2018-04-23T21:55:05.943Z,15.10
2018-04-23T21:57:33.482Z,14.90
2018-04-23T22:00:01.043Z,14.90
2018-04-23T22:02:28.579Z,14.80
2018-04-23T22:04:56.888Z,14.80
2018-04-23T22:07:24.440Z,14.80
2018-04-23T22:09:52.376Z,14.80
2018-04-23T22:12:19.941Z,14.70
2018-04-23T22:14:47.463Z,14.60
2018-04-23T22:17:15.031Z,14.70
2018-04-23T22:19:43.433Z,14.60
2018-04-23T22:22:10.979Z,14.60
2018-04-23T22:24:38.537Z,14.60
2018-04-23T22:27:06.063Z,14.70
2018-04-23T22:29:34.604Z,14.60
2018-04-23T22:32:02.231Z,14.60
2018-04-23T22:34:29.787Z,14.60
2018-04-23T22:36:58.075Z,14.60
2018-04-23T22:39:26.392Z,14.60
2018-04-23T22:41:53.935Z,14.60
2018-04-23T22:44:21.506Z,14.60
2018-04-23T22:46:49.072Z,14.50
2018-04-23T22:49:16.633Z,14.50
2018-04-23T22:51:44.160Z,14.50
2018-04-23T22:54:12.565Z,14.50
2018-04-23T22:56:40.084Z,14.50
2018-04-23T22:59:07.616Z,14.50
2018-04-23T23:01:35.187Z,14.60
2018-04-23T23:04:02.726Z,14.50
2018-04-23T23:06:30.304Z,14.40
2018-04-23T23:08:57.863Z,14.50
2018-04-23T23:11:25.396Z,14.50
2018-04-23T23:13:53.702Z,14.50
2018-04-23T23:16:21.275Z,14.50
2018-04-23T23:18:48.802Z,14.60
2018-04-23T23:21:17.084Z,14.40
2018-04-23T23:23:45.409Z,14.40
2018-04-23T23:26:12.927Z,14.30
2018-04-23T23:28:41.217Z,14.30
2018-04-23T23:31:09.552Z,14.40
2018-04-23T23:33:37.096Z,14.40
2018-04-23T23:36:04.610Z,14.40
2018-04-23T23:38:32.178Z,14.30
2018-04-23T23:40:59.705Z,14.30
2018-04-23T23:43:27.223Z,14.30
2018-04-23T23:45:54.764Z,14.30
2018-04-23T23:48:22.295Z,14.20
2018-04-23T23:50:50.600Z,14.20
2018-04-23T23:53:18.134Z,14.10
2018-04-23T23:55:45.647Z,14.20
2018-04-23T23:58:13.923Z,14.10
